Time;durP1;ratioP1;P1;durP2;ratioP2;P2;SDS_P1;SDS_P2;PMS_P1;PMS_P2;Temp;Humidity;BMP_temperature;BMP_pressure;BME280_temperature;BME280_humidity;BME280_pressure;Samples;Min_cycle;Max_cycle;Signal;HPM_P1;HPM_P2
2023/03/01 00:00:07;;;;;;;;;;;;;;;28.98;66.71;101347.16;5078487;27;69243;-39
2023/03/01 00:02:41;;;;;;;;;;;;;;;29.03;66.27;101349.25;5047538;28;67191;-40
2023/03/01 00:05:12;;;;;;;;;;;;;;;29.03;66.56;101358.25;5043013;28;69358;-38
2023/03/01 00:07:42;;;;;;;;;;;;;;;29.08;67.13;101355.75;5041767;28;66583;-37
2023/03/01 00:10:12;;;;;;;;;;;;;;;29.13;67.45;101352.47;5047585;28;69075;-38
2023/03/01 00:12:43;;;;;;;;;;;;;;;29.17;67.52;101345.66;5042907;27;67450;-42
2023/03/01 00:15:14;;;;;;;;;;;;;;;29.17;67.39;101342.97;5050378;28;69953;-39
2023/03/01 00:17:44;;;;;;;;;;;;;;;29.13;66.79;101344.38;5045149;28;66607;-46
2023/03/01 00:20:14;;;;;;;;;;;;;;;29.12;67.06;101340.00;5045672;28;70555;-39
2023/03/01 00:22:45;;;;;;;;;;;;;;;29.17;67.46;101348.38;5050194;28;66791;-40
2023/03/01 00:25:15;;;;;;;;;;;;;;;29.21;67.46;101352.31;5051918;28;69701;-41
2023/03/01 00:27:46;;;;;;;;;;;;;;;29.25;67.40;101353.59;5046319;28;66556;-41
2023/03/01 00:30:17;;;;;;;;;;;;;;;29.27;67.35;101359.63;5049220;28;70028;-39
2023/03/01 00:32:47;;;;;;;;;;;;;;;29.03;66.82;101320.44;5042195;28;66503;-41
2023/03/01 00:35:17;;;;;;;;;;;;;;;29.26;65.91;101366.06;5040777;27;70560;-40
2023/03/01 00:37:47;;;;;;;;;;;;;;;29.28;64.55;101369.44;5060103;27;66706;-41
2023/03/01 00:40:18;;;;;;;;;;;;;;;29.32;64.60;101380.66;5047035;28;69841;-40
2023/03/01 00:42:48;;;;;;;;;;;;;;;29.33;64.30;101388.56;5041002;28;66498;-40
2023/03/01 00:45:19;;;;;;;;;;;;;;;29.37;64.16;101380.91;5043070;28;70625;-40
2023/03/01 00:47:50;;;;;;;;;;;;;;;29.40;63.90;101389.44;5041857;27;66654;-41
2023/03/01 00:50:21;;;;;;;;;;;;;;;29.44;63.19;101397.16;5043148;28;69851;-40
2023/03/01 00:52:55;;;;;;;;;;;;;;;29.47;63.02;101388.66;5047393;28;59724;-40
2023/03/01 00:55:25;;;;;;;;;;;;;;;29.49;63.20;101397.41;5041576;27;69207;-40
2023/03/01 00:57:56;;;;;;;;;;;;;;;29.51;62.72;101390.78;5046418;27;66897;-40
2023/03/01 01:00:27;;;;;;;;;;;;;;;29.54;62.12;101390.38;5042650;28;70195;-39
2023/03/01 01:02:57;;;;;;;;;;;;;;;29.56;62.11;101390.16;5044739;28;66286;-40
2023/03/01 01:05:27;;;;;;;;;;;;;;;29.57;62.15;101389.13;5081917;27;70407;-40
2023/03/01 01:07:58;;;;;;;;;;;;;;;29.60;61.52;101399.56;5050261;28;65953;-40
2023/03/01 01:10:28;;;;;;;;;;;;;;;29.62;61.46;101402.91;5048091;28;69960;-40
2023/03/01 01:12:58;;;;;;;;;;;;;;;29.62;61.47;101417.25;5040396;28;65512;-39
2023/03/01 01:15:28;;;;;;;;;;;;;;;29.65;61.23;101416.03;5047526;28;69958;-39
2023/03/01 01:17:59;;;;;;;;;;;;;;;29.66;61.46;101425.81;5048416;28;65592;-39
2023/03/01 01:20:29;;;;;;;;;;;;;;;29.68;61.27;101422.94;5052992;28;69899;-40
2023/03/01 01:23:00;;;;;;;;;;;;;;;29.68;61.10;101423.75;5043424;28;66928;-39
2023/03/01 01:25:30;;;;;;;;;;;;;;;29.70;60.86;101416.28;5041406;28;68670;-42
2023/03/01 01:28:01;;;;;;;;;;;;;;;29.71;60.53;101414.41;5047282;28;67105;-40
2023/03/01 01:30:31;;;;;;;;;;;;;;;29.72;60.91;101416.06;5046820;27;69811;-41
2023/03/01 01:33:01;;;;;;;;;;;;;;;29.73;61.03;101415.88;5067757;27;66759;-40
2023/03/01 01:35:32;;;;;;;;;;;;;;;29.74;60.32;101422.94;5047697;28;70198;-40
2023/03/01 01:38:02;;;;;;;;;;;;;;;29.76;60.80;101420.88;5040750;28;66502;-40
2023/03/01 01:40:32;;;;;;;;;;;;;;;29.77;60.24;101422.53;5050794;28;69788;-40
2023/03/01 01:43:03;;;;;;;;;;;;;;;29.79;60.71;101425.91;5051616;28;66113;-47
2023/03/01 01:45:35;;;;;;;;;;;;;;;29.79;60.15;101436.72;5040793;28;69797;-40
2023/03/01 01:48:10;;;;;;;;;;;;;;;29.81;59.89;101437.34;5043062;27;66006;-40
2023/03/01 01:50:41;;;;;;;;;;;;;;;29.82;59.82;101447.13;5041958;28;70245;-40
2023/03/01 01:53:17;;;;;;;;;;;;;;;29.84;60.27;101447.78;5042284;27;66683;-40
2023/03/01 01:55:52;;;;;;;;;;;;;;;29.86;60.30;101449.44;5047113;28;71767;-40
2023/03/01 01:58:23;;;;;;;;;;;;;;;29.87;59.98;101454.66;5076905;27;65932;-40
2023/03/01 02:00:54;;;;;;;;;;;;;;;29.89;59.54;101454.44;5047487;28;69229;-40
2023/03/01 02:03:28;;;;;;;;;;;;;;;29.89;59.72;101457.97;5087748;27;66982;-40
2023/03/01 02:06:03;;;;;;;;;;;;;;;29.91;59.36;101463.19;5054664;28;70020;-41
2023/03/01 02:08:35;;;;;;;;;;;;;;;29.92;59.65;101467.56;5054792;28;66321;-41
2023/03/01 02:11:06;;;;;;;;;;;;;;;29.94;59.26;101470.91;5048146;27;70387;-40
2023/03/01 02:13:37;;;;;;;;;;;;;;;29.95;59.36;101473.41;5051045;28;65961;-40
2023/03/01 02:16:12;;;;;;;;;;;;;;;29.96;59.54;101469.66;5048861;28;69918;-39
2023/03/01 02:18:43;;;;;;;;;;;;;;;29.97;59.79;101470.50;5061027;28;65657;-39
2023/03/01 02:21:32;;;;;;;;;;;;;;;29.99;59.58;101479.25;5054106;28;69044;-40
2023/03/01 02:24:11;;;;;;;;;;;;;;;30.00;59.38;101479.03;5057934;28;66927;-40
2023/03/01 02:26:45;;;;;;;;;;;;;;;30.04;59.19;101484.91;5057220;28;70304;-40
2023/03/01 02:29:15;;;;;;;;;;;;;;;30.05;59.69;101483.84;5047718;28;66009;-40
2023/03/01 02:31:46;;;;;;;;;;;;;;;30.06;59.35;101478.25;5054811;28;70413;-41
2023/03/01 02:34:20;;;;;;;;;;;;;;;30.08;59.48;101486.16;5051960;27;66867;-41
2023/03/01 02:37:00;;;;;;;;;;;;;;;30.10;59.47;101480.56;5050053;28;70009;-41
2023/03/01 02:39:34;;;;;;;;;;;;;;;30.12;59.21;101483.91;5049418;28;66892;-42
2023/03/01 02:42:06;;;;;;;;;;;;;;;30.13;59.28;101491.81;5046788;28;69433;-40
2023/03/01 02:44:36;;;;;;;;;;;;;;;30.16;59.19;101485.16;5044019;28;65459;-40
2023/03/01 02:47:06;;;;;;;;;;;;;;;30.18;58.86;101489.34;5048134;28;70521;-46
2023/03/01 02:49:37;;;;;;;;;;;;;;;30.19;58.93;101484.75;5053415;28;66377;-39
2023/03/01 02:52:11;;;;;;;;;;;;;;;30.21;58.68;101488.94;5051568;28;70705;-39
2023/03/01 02:54:50;;;;;;;;;;;;;;;30.21;59.08;101483.53;5045301;28;66322;-39
2023/03/01 02:57:22;;;;;;;;;;;;;;;30.24;59.06;101477.75;5047443;28;70198;-42
2023/03/01 02:59:55;;;;;;;;;;;;;;;30.26;59.21;101481.09;5084714;27;66899;-46
2023/03/01 03:02:36;;;;;;;;;;;;;;;30.28;58.57;101476.31;5052898;28;69713;-39
2023/03/01 03:05:14;;;;;;;;;;;;;;;30.32;58.48;101478.63;5085778;27;67079;-40
2023/03/01 03:07:45;;;;;;;;;;;;;;;30.32;58.82;101473.19;5050958;27;70099;-39
2023/03/01 03:10:19;;;;;;;;;;;;;;;30.35;58.87;101467.38;5043316;28;66110;-41
2023/03/01 03:12:53;;;;;;;;;;;;;;;30.36;58.24;101464.44;5050050;27;70755;-40
2023/03/01 03:15:24;;;;;;;;;;;;;;;30.40;58.10;101463.03;5079621;27;65883;-39
2023/03/01 03:17:58;;;;;;;;;;;;;;;30.42;58.05;101458.25;5083474;27;70542;-40
2023/03/01 03:20:28;;;;;;;;;;;;;;;30.44;58.31;101455.31;5051645;28;65599;-41
2023/03/01 03:22:59;;;;;;;;;;;;;;;30.46;58.27;101458.66;5048058;28;70449;-40
2023/03/01 03:25:30;;;;;;;;;;;;;;;30.48;57.98;101451.19;5048161;28;66285;-42
2023/03/01 03:28:00;;;;;;;;;;;;;;;30.50;58.14;101444.50;5050177;27;71364;-40
2023/03/01 03:30:31;;;;;;;;;;;;;;;30.53;57.86;101448.69;5040705;28;66223;-40
2023/03/01 03:33:03;;;;;;;;;;;;;;;30.55;57.87;101435.78;5061225;27;68938;-41
2023/03/01 03:35:35;;;;;;;;;;;;;;;30.57;57.64;101439.13;5045928;28;66282;-40
2023/03/01 03:38:06;;;;;;;;;;;;;;;30.59;57.93;101437.06;5045893;28;70870;-39
2023/03/01 03:40:38;;;;;;;;;;;;;;;30.62;57.49;101425.81;5064877;28;66455;-41
2023/03/01 03:43:10;;;;;;;;;;;;;;;30.63;58.04;101424.75;5059395;27;69238;-41
2023/03/01 03:45:41;;;;;;;;;;;;;;;30.64;57.63;101421.00;5042644;28;67210;-40
2023/03/01 03:48:11;;;;;;;;;;;;;;;30.67;57.87;101412.50;5047967;28;70197;-39
2023/03/01 03:50:58;;;;;;;;;;;;;;;30.69;57.63;101410.38;5045956;28;66992;-40
2023/03/01 03:53:34;;;;;;;;;;;;;;;30.72;57.66;101409.97;5051594;28;70567;-41
2023/03/01 03:56:11;;;;;;;;;;;;;;;30.75;57.09;101402.47;5054191;27;64903;-40
2023/03/01 03:58:49;;;;;;;;;;;;;;;30.76;56.91;101399.56;5053779;28;70613;-40
2023/03/01 04:01:34;;;;;;;;;;;;;;;30.79;57.17;101398.34;5048229;28;66496;-41
2023/03/01 04:04:07;;;;;;;;;;;;;;;30.81;57.16;101393.56;5054240;28;69930;-39
2023/03/01 04:06:41;;;;;;;;;;;;;;;30.84;56.91;101385.00;5051578;28;66674;-40
2023/03/01 04:09:26;;;;;;;;;;;;;;;30.87;57.09;101384.59;5047816;28;69525;-40
2023/03/01 04:11:56;;;;;;;;;;;;;;;30.87;56.69;101373.75;5057681;28;66952;-40
2023/03/01 04:14:27;;;;;;;;;;;;;;;30.90;56.63;101378.78;5055996;28;70655;-39
2023/03/01 04:16:57;;;;;;;;;;;;;;;30.91;56.44;101358.75;5053545;28;66631;-41
2023/03/01 04:19:28;;;;;;;;;;;;;;;30.95;56.52;101360.00;5054906;28;69526;-41
2023/03/01 04:22:09;;;;;;;;;;;;;;;30.96;56.13;101350.84;5047974;28;66058;-39
2023/03/01 04:24:39;;;;;;;;;;;;;;;30.99;56.41;101349.59;5057353;28;69850;-40
2023/03/01 04:27:09;;;;;;;;;;;;;;;30.99;56.45;101345.00;5043802;28;66137;-41
2023/03/01 04:29:40;;;;;;;;;;;;;;;31.02;55.87;101333.75;5041959;28;69212;-40
2023/03/01 04:32:10;;;;;;;;;;;;;;;31.03;56.04;101332.69;5048749;27;66657;-39
2023/03/01 04:34:41;;;;;;;;;;;;;;;31.05;55.87;101333.31;5048013;28;70640;-42
2023/03/01 04:37:11;;;;;;;;;;;;;;;31.06;56.19;101329.56;5072274;28;66646;-39
2023/03/01 04:39:45;;;;;;;;;;;;;;;31.06;55.92;101329.56;5057423;28;69617;-39
2023/03/01 04:42:16;;;;;;;;;;;;;;;31.08;56.04;101322.06;5048014;28;66406;-39
2023/03/01 04:44:46;;;;;;;;;;;;;;;31.09;56.03;101315.63;5044976;28;69262;-39
2023/03/01 04:47:17;;;;;;;;;;;;;;;31.11;56.15;101308.09;5049912;28;66476;-41
2023/03/01 04:49:47;;;;;;;;;;;;;;;31.12;56.03;101301.63;5047625;27;70248;-39
2023/03/01 04:52:18;;;;;;;;;;;;;;;31.13;56.26;101297.88;5055438;28;66171;-41
2023/03/01 04:54:48;;;;;;;;;;;;;;;31.16;55.98;101296.63;5048743;28;70987;-40
2023/03/01 04:57:18;;;;;;;;;;;;;;;31.16;55.69;101283.91;5056250;28;66644;-41
2023/03/01 04:59:50;;;;;;;;;;;;;;;31.19;55.94;101290.78;5050616;28;70581;-40
2023/03/01 05:02:20;;;;;;;;;;;;;;;31.20;56.07;101283.47;5052553;28;65635;-41
2023/03/01 05:04:50;;;;;;;;;;;;;;;31.22;55.95;101284.09;5053590;28;70073;-40
2023/03/01 05:07:20;;;;;;;;;;;;;;;31.23;55.58;101274.91;5050485;28;66144;-41
2023/03/01 05:09:51;;;;;;;;;;;;;;;31.25;55.81;101264.69;5045701;28;70290;-40
2023/03/01 05:12:22;;;;;;;;;;;;;;;31.27;55.37;101259.91;5053036;28;66171;-41
2023/03/01 05:14:53;;;;;;;;;;;;;;;31.30;55.70;101256.75;5044266;28;70425;-41
2023/03/01 05:17:24;;;;;;;;;;;;;;;31.32;55.65;101254.66;5040022;28;67421;-42
2023/03/01 05:19:55;;;;;;;;;;;;;;;31.33;55.48;101243.59;5054617;28;69935;-40
2023/03/01 05:22:25;;;;;;;;;;;;;;;31.36;55.38;101239.66;5057172;27;65448;-40
2023/03/01 05:24:55;;;;;;;;;;;;;;;31.39;55.36;101242.75;5052028;28;69637;-40
2023/03/01 05:27:26;;;;;;;;;;;;;;;31.40;55.24;101232.78;5048668;28;65828;-41
2023/03/01 05:29:56;;;;;;;;;;;;;;;31.43;55.40;101226.91;5054140;28;70464;-41
2023/03/01 05:32:27;;;;;;;;;;;;;;;31.44;55.15;101215.03;5047403;28;67332;-41
2023/03/01 05:34:58;;;;;;;;;;;;;;;31.47;54.84;101219.19;5048134;28;71210;-41
2023/03/01 05:37:28;;;;;;;;;;;;;;;31.47;54.88;101206.44;5051496;28;67023;-41
2023/03/01 05:39:58;;;;;;;;;;;;;;;31.50;54.73;101208.72;5048988;28;69657;-40
2023/03/01 05:42:30;;;;;;;;;;;;;;;31.53;54.66;101202.88;5044555;28;67078;-40
2023/03/01 05:45:00;;;;;;;;;;;;;;;31.54;55.02;101201.84;5046174;28;69868;-40
2023/03/01 05:47:31;;;;;;;;;;;;;;;31.56;55.07;101194.28;5044307;28;66472;-40
2023/03/01 05:50:02;;;;;;;;;;;;;;;31.30;54.63;101151.06;5043575;28;71182;-40
2023/03/01 05:52:33;;;;;;;;;;;;;;;31.61;54.88;101186.34;5045073;28;66804;-40
2023/03/01 05:55:04;;;;;;;;;;;;;;;31.63;54.73;101178.00;5045205;28;70522;-40
2023/03/01 05:57:34;;;;;;;;;;;;;;;31.65;54.37;101170.47;5046649;28;66899;-40
2023/03/01 06:00:06;;;;;;;;;;;;;;;31.69;54.87;101173.56;5043640;28;69868;-40
2023/03/01 06:02:45;;;;;;;;;;;;;;;31.71;54.55;101164.19;5049231;28;66569;-40
2023/03/01 06:05:16;;;;;;;;;;;;;;;31.72;54.39;101149.56;5053027;28;69549;-40
2023/03/01 06:07:46;;;;;;;;;;;;;;;31.75;54.36;101151.00;5051694;27;66332;-39
2023/03/01 06:10:17;;;;;;;;;;;;;;;31.77;54.24;101143.47;5045022;28;69272;-40
2023/03/01 06:12:48;;;;;;;;;;;;;;;31.79;54.11;101144.94;5048323;27;66435;-40
2023/03/01 06:15:18;;;;;;;;;;;;;;;31.81;54.20;101131.94;5042426;27;70531;-42
2023/03/01 06:17:49;;;;;;;;;;;;;;;31.85;54.21;101131.53;5061756;27;66235;-41
2023/03/01 06:20:20;;;;;;;;;;;;;;;31.87;54.26;101130.22;5046836;28;69960;-40
2023/03/01 06:22:51;;;;;;;;;;;;;;;31.90;54.09;101118.97;5045266;28;66131;-40
2023/03/01 06:25:31;;;;;;;;;;;;;;;31.92;54.01;101110.63;5054560;28;70667;-40
2023/03/01 06:28:01;;;;;;;;;;;;;;;31.96;53.89;101109.16;5050145;27;66694;-40
2023/03/01 06:30:31;;;;;;;;;;;;;;;31.97;53.80;101098.03;5057355;28;69839;-41
2023/03/01 06:33:05;;;;;;;;;;;;;;;32.00;53.94;101105.75;5051550;27;65689;-41
2023/03/01 06:35:35;;;;;;;;;;;;;;;32.02;53.74;101087.38;5060318;28;69766;-40
2023/03/01 06:38:06;;;;;;;;;;;;;;;32.04;53.54;101087.97;5051367;28;65546;-40
2023/03/01 06:40:37;;;;;;;;;;;;;;;32.07;53.70;101092.13;5058432;28;70175;-40
2023/03/01 06:43:07;;;;;;;;;;;;;;;32.10;53.75;101085.44;5040581;28;65490;-40
2023/03/01 06:45:38;;;;;;;;;;;;;;;32.12;53.43;101083.28;5058664;28;69922;-39
2023/03/01 06:48:08;;;;;;;;;;;;;;;32.15;53.40;101078.28;5043292;27;67037;-40
2023/03/01 06:50:38;;;;;;;;;;;;;;;32.16;53.24;101073.66;5053951;28;70595;-41
2023/03/01 06:53:09;;;;;;;;;;;;;;;32.19;53.37;101078.66;5053485;28;66127;-41
2023/03/01 06:55:40;;;;;;;;;;;;;;;32.21;53.24;101062.97;5049658;28;69320;-40
2023/03/01 06:58:10;;;;;;;;;;;;;;;32.23;53.03;101067.13;5055468;27;66885;-41
2023/03/01 07:00:43;;;;;;;;;;;;;;;32.26;53.16;101057.66;5052587;28;70590;-39
2023/03/01 07:03:13;;;;;;;;;;;;;;;32.28;52.65;101050.13;5045072;28;66448;-40
2023/03/01 07:05:44;;;;;;;;;;;;;;;32.31;52.83;101038.81;5046989;28;70047;-42
2023/03/01 07:08:14;;;;;;;;;;;;;;;32.34;52.94;101038.38;5087363;27;65909;-40
2023/03/01 07:10:45;;;;;;;;;;;;;;;32.38;52.73;101039.59;5046941;28;70603;-40
2023/03/01 07:13:15;;;;;;;;;;;;;;;32.40;52.58;101023.91;5048699;28;66643;-40
2023/03/01 07:15:46;;;;;;;;;;;;;;;32.43;52.54;101026.16;5051987;28;69749;-40
2023/03/01 07:18:16;;;;;;;;;;;;;;;32.45;52.46;101032.19;5049866;28;66173;-40
2023/03/01 07:20:47;;;;;;;;;;;;;;;32.50;52.29;101020.69;5052481;28;69765;-40
2023/03/01 07:23:18;;;;;;;;;;;;;;;32.53;52.08;101022.09;5051420;28;66309;-40
2023/03/01 07:25:52;;;;;;;;;;;;;;;32.54;52.23;101004.75;5046379;28;69925;-41
2023/03/01 07:28:23;;;;;;;;;;;;;;;32.59;52.04;101004.91;5054591;27;66551;-40
2023/03/01 07:30:54;;;;;;;;;;;;;;;32.62;51.86;101012.59;5043541;28;69930;-40
2023/03/01 07:33:24;;;;;;;;;;;;;;;32.64;51.64;101005.03;5047037;28;66138;-40
2023/03/01 07:35:59;;;;;;;;;;;;;;;32.67;51.53;101010.00;5050497;28;70483;-41
2023/03/01 07:38:30;;;;;;;;;;;;;;;32.72;51.68;101007.44;5056933;28;66554;-41
2023/03/01 07:41:02;;;;;;;;;;;;;;;32.76;51.64;101000.47;5048304;28;70576;-40
2023/03/01 07:43:33;;;;;;;;;;;;;;;32.78;51.58;100998.38;5059951;27;66582;-41
2023/03/01 07:46:04;;;;;;;;;;;;;;;32.84;51.30;100994.72;5057279;27;69858;-42
2023/03/01 07:48:35;;;;;;;;;;;;;;;32.88;51.25;100990.50;5054844;27;66666;-42
2023/03/01 07:51:06;;;;;;;;;;;;;;;32.90;51.52;100991.09;5049714;28;70832;-43
2023/03/01 07:53:37;;;;;;;;;;;;;;;32.93;51.13;100981.63;5044577;28;67060;-41
2023/03/01 07:56:08;;;;;;;;;;;;;;;32.97;51.13;100987.44;5044740;28;69855;-42
2023/03/01 07:58:40;;;;;;;;;;;;;;;33.02;50.93;100979.47;5061956;27;64494;-41
2023/03/01 08:01:12;;;;;;;;;;;;;;;33.06;51.07;100983.34;5048222;28;69804;-40
2023/03/01 08:03:43;;;;;;;;;;;;;;;33.07;50.91;100977.72;5044813;27;66622;-43
2023/03/01 08:06:15;;;;;;;;;;;;;;;33.13;50.78;100981.38;5042404;27;70442;-40
2023/03/01 08:08:46;;;;;;;;;;;;;;;33.18;50.50;100976.03;5080123;27;66826;-41
2023/03/01 08:11:16;;;;;;;;;;;;;;;33.21;50.66;100978.31;5045202;28;69835;-39
2023/03/01 08:13:48;;;;;;;;;;;;;;;33.24;50.22;100969.69;5047117;27;66176;-41
2023/03/01 08:16:40;;;;;;;;;;;;;;;33.27;50.63;100974.66;5045499;28;69900;-41
2023/03/01 08:19:12;;;;;;;;;;;;;;;33.32;50.31;100963.91;5054003;27;66105;-41
2023/03/01 08:21:43;;;;;;;;;;;;;;;33.36;50.11;100970.53;5061583;27;69862;-41
2023/03/01 08:24:13;;;;;;;;;;;;;;;33.40;49.98;100962.72;5047295;28;65741;-40
2023/03/01 08:26:44;;;;;;;;;;;;;;;33.45;50.22;100959.31;5051477;28;69467;-40
2023/03/01 08:29:14;;;;;;;;;;;;;;;33.51;49.89;100955.63;5062605;28;66111;-40
2023/03/01 08:31:45;;;;;;;;;;;;;;;33.55;49.80;100959.56;5057324;27;69803;-41
2023/03/01 08:34:16;;;;;;;;;;;;;;;33.58;49.68;100961.81;5058635;28;66117;-41
2023/03/01 08:36:47;;;;;;;;;;;;;;;33.61;49.55;100949.66;5051970;28;70151;-41
2023/03/01 08:39:19;;;;;;;;;;;;;;;33.68;49.29;100961.22;5050526;28;66332;-39
2023/03/01 08:41:49;;;;;;;;;;;;;;;33.71;49.68;100961.59;5047660;28;69754;-40
2023/03/01 08:44:20;;;;;;;;;;;;;;;33.76;49.37;100958.94;5041878;28;65292;-40
2023/03/01 08:46:53;;;;;;;;;;;;;;;33.77;49.34;100960.63;5044022;28;69578;-40
2023/03/01 08:49:23;;;;;;;;;;;;;;;33.81;49.34;100961.78;5047271;28;66158;-42
2023/03/01 08:51:54;;;;;;;;;;;;;;;33.85;49.20;100962.16;5051129;28;70019;-40
2023/03/01 08:54:24;;;;;;;;;;;;;;;33.89;48.91;100963.31;5050405;28;66620;-40
2023/03/01 08:56:55;;;;;;;;;;;;;;;33.93;48.67;100966.38;5082152;27;70484;-40
2023/03/01 08:59:26;;;;;;;;;;;;;;;33.94;48.97;100970.78;5052795;28;66469;-41
2023/03/01 09:01:56;;;;;;;;;;;;;;;33.96;48.75;100961.31;5087095;27;68958;-41
2023/03/01 09:04:26;;;;;;;;;;;;;;;34.00;48.97;100976.09;5049056;28;65539;-41
2023/03/01 09:06:57;;;;;;;;;;;;;;;34.04;48.53;100981.88;5056192;28;69094;-42
2023/03/01 09:09:27;;;;;;;;;;;;;;;34.06;48.41;100985.22;5057599;28;66076;-40
2023/03/01 09:11:57;;;;;;;;;;;;;;;34.08;48.58;100985.81;5056069;28;70038;-39
2023/03/01 09:14:28;;;;;;;;;;;;;;;34.13;48.10;100985.94;5054068;27;67094;-42
2023/03/01 09:17:02;;;;;;;;;;;;;;;34.16;48.14;100992.78;5040894;28;70451;-40
2023/03/01 09:19:32;;;;;;;;;;;;;;;34.17;48.05;100992.53;5059187;28;66621;-41
2023/03/01 09:22:03;;;;;;;;;;;;;;;34.20;48.54;101002.94;5045103;27;69665;-40
2023/03/01 09:24:34;;;;;;;;;;;;;;;34.23;48.04;101004.34;5046765;28;66028;-41
2023/03/01 09:27:08;;;;;;;;;;;;;;;34.25;47.89;101005.78;5055977;28;70476;-40
2023/03/01 09:29:39;;;;;;;;;;;;;;;34.25;48.31;101008.50;5047368;28;66189;-40
2023/03/01 09:32:10;;;;;;;;;;;;;;;34.28;48.14;101011.81;5052129;28;69542;-42
2023/03/01 09:37:29;;;;;;;;;;;;;;;34.30;48.10;101009.66;5041421;28;70048;-40
2023/03/01 09:39:59;;;;;;;;;;;;;;;34.32;48.45;101021.13;5054573;27;66107;-40
2023/03/01 09:42:31;;;;;;;;;;;;;;;34.34;48.02;101016.28;5072274;27;68999;-41
2023/03/01 09:45:04;;;;;;;;;;;;;;;34.35;48.18;101026.09;5039428;28;66141;-40
2023/03/01 09:47:36;;;;;;;;;;;;;;;34.37;48.32;101026.69;5040955;28;70775;-40
2023/03/01 09:50:06;;;;;;;;;;;;;;;34.37;48.19;101023.97;5041348;28;65358;-42
2023/03/01 09:52:46;;;;;;;;;;;;;;;34.37;48.18;101034.88;5042539;27;69974;-41
2023/03/01 09:55:20;;;;;;;;;;;;;;;34.36;48.13;101034.03;5039943;28;66438;-40
2023/03/01 09:57:53;;;;;;;;;;;;;;;34.36;48.75;101028.59;5054335;28;70177;-40
2023/03/01 10:00:50;;;;;;;;;;;;;;;34.35;48.30;101032.41;5048330;28;65793;-40
2023/03/01 10:03:34;;;;;;;;;;;;;;;34.33;48.32;101039.16;5044896;28;70471;-40
2023/03/01 10:06:10;;;;;;;;;;;;;;;34.32;48.52;101032.03;5053081;27;65912;-40
2023/03/01 10:09:00;;;;;;;;;;;;;;;34.33;48.95;101033.72;5040578;28;69913;-42
2023/03/01 10:11:36;;;;;;;;;;;;;;;34.31;48.68;101041.28;5038937;28;65431;-41
2023/03/01 10:14:26;;;;;;;;;;;;;;;34.31;49.09;101049.44;5043943;28;68914;-40
2023/03/01 10:17:17;;;;;;;;;;;;;;;34.30;48.67;101050.50;5044887;28;66866;-42
2023/03/01 10:19:48;;;;;;;;;;;;;;;34.29;48.75;101048.84;5045895;28;69246;-41
2023/03/01 10:22:23;;;;;;;;;;;;;;;34.26;49.28;101048.25;5054874;28;66961;-40
2023/03/01 10:24:54;;;;;;;;;;;;;;;34.26;49.36;101050.97;5045550;28;70209;-42
2023/03/01 10:27:26;;;;;;;;;;;;;;;34.22;49.40;101060.72;5048307;28;66621;-41
2023/03/01 10:30:05;;;;;;;;;;;;;;;34.15;49.70;101060.00;5042025;28;70196;-42
2023/03/01 10:32:36;;;;;;;;;;;;;;;33.88;51.22;101069.69;5047386;27;66510;-42
2023/03/01 10:35:16;;;;;;;;;;;;;;;33.70;52.06;101059.75;5042092;28;69002;-40
2023/03/01 10:38:03;;;;;;;;;;;;;;;33.55;52.90;101071.09;5041942;28;66629;-40
2023/03/01 10:40:34;;;;;;;;;;;;;;;33.41;53.54;101064.19;5076868;27;69987;-42
2023/03/01 10:43:05;;;;;;;;;;;;;;;33.33;54.00;101082.47;5047010;28;66031;-41
2023/03/01 10:45:38;;;;;;;;;;;;;;;33.27;54.18;101093.47;5044433;28;70066;-41
2023/03/01 10:48:12;;;;;;;;;;;;;;;33.21;54.94;101091.66;5046845;28;66073;-43
2023/03/01 10:50:44;;;;;;;;;;;;;;;33.17;55.37;101102.16;5043234;28;70235;-41
2023/03/01 10:53:21;;;;;;;;;;;;;;;33.12;55.63;101093.84;5043655;28;66398;-41
2023/03/01 10:56:01;;;;;;;;;;;;;;;33.06;56.16;101097.50;5044207;28;71223;-41
2023/03/01 10:58:32;;;;;;;;;;;;;;;33.03;56.06;101100.69;5049935;28;66422;-42
2023/03/01 11:01:15;;;;;;;;;;;;;;;32.98;56.00;101098.63;5044157;28;69024;-41
2023/03/01 11:03:45;;;;;;;;;;;;;;;32.93;56.50;101102.03;5049446;27;66957;-41
2023/03/01 11:06:22;;;;;;;;;;;;;;;32.93;57.11;101109.34;5049264;28;70445;-41
2023/03/01 11:08:53;;;;;;;;;;;;;;;33.10;56.48;101115.03;5050060;28;66516;-43
2023/03/01 11:11:25;;;;;;;;;;;;;;;33.20;55.82;101118.00;5049829;27;68862;-41
2023/03/01 11:14:19;;;;;;;;;;;;;;;33.28;55.07;101131.28;5043531;28;65413;-42
2023/03/01 11:17:00;;;;;;;;;;;;;;;33.30;54.96;101122.91;5045092;28;69874;-40
2023/03/01 11:19:30;;;;;;;;;;;;;;;33.35;54.90;101136.63;5045182;27;67132;-41
2023/03/01 11:22:07;;;;;;;;;;;;;;;33.36;54.74;101139.09;5044820;28;70571;-41
2023/03/01 11:24:42;;;;;;;;;;;;;;;33.40;54.31;101144.91;5043433;28;66963;-41
2023/03/01 11:27:32;;;;;;;;;;;;;;;33.43;54.08;101138.19;5044675;28;69621;-41
2023/03/01 11:30:09;;;;;;;;;;;;;;;33.44;53.98;101139.84;5042444;28;66435;-40
2023/03/01 11:32:41;;;;;;;;;;;;;;;33.44;54.26;101145.28;5044416;28;69960;-40
2023/03/01 11:35:18;;;;;;;;;;;;;;;33.44;54.43;101145.28;5045848;28;66522;-42
2023/03/01 11:38:11;;;;;;;;;;;;;;;33.47;54.35;101150.25;5054223;28;70159;-42
2023/03/01 11:40:45;;;;;;;;;;;;;;;33.44;53.96;101161.59;5046110;27;66671;-40
2023/03/01 11:43:21;;;;;;;;;;;;;;;33.43;54.17;101160.75;5047351;28;68831;-40
2023/03/01 11:46:00;;;;;;;;;;;;;;;33.43;53.87;101170.81;5050130;27;66812;-41
2023/03/01 11:48:38;;;;;;;;;;;;;;;33.41;54.01;101175.66;5043921;27;70707;-41
2023/03/01 11:51:25;;;;;;;;;;;;;;;33.39;54.13;101170.44;5041521;27;67169;-42
2023/03/01 11:54:02;;;;;;;;;;;;;;;33.38;53.84;101185.94;5046191;28;69794;-41
2023/03/01 11:56:35;;;;;;;;;;;;;;;33.36;54.15;101177.19;5042077;28;66749;-41
2023/03/01 11:59:24;;;;;;;;;;;;;;;33.35;53.75;101185.59;5045027;28;69803;-40
2023/03/01 12:01:57;;;;;;;;;;;;;;;33.32;54.05;101192.31;5050691;28;65643;-41
2023/03/01 12:04:49;;;;;;;;;;;;;;;33.30;54.08;101199.03;5049810;27;69983;-40
2023/03/01 12:07:41;;;;;;;;;;;;;;;33.28;54.00;101210.13;5051013;28;66788;-42
2023/03/01 12:10:23;;;;;;;;;;;;;;;33.10;55.64;101210.16;5043840;27;69686;-44
2023/03/01 12:13:08;;;;;;;;;;;;;;;32.89;57.48;101214.94;5048001;28;66376;-39
2023/03/01 12:15:45;;;;;;;;;;;;;;;32.74;58.12;101214.50;5042934;27;69690;-41
2023/03/01 12:18:34;;;;;;;;;;;;;;;32.64;58.87;101225.88;5045925;28;67723;-40
2023/03/01 12:21:07;;;;;;;;;;;;;;;32.58;59.24;101229.47;5041646;28;69398;-42
2023/03/01 12:24:01;;;;;;;;;;;;;;;32.47;59.79;101232.94;5043752;28;66268;-40
2023/03/01 12:26:43;;;;;;;;;;;;;;;32.41;60.07;101229.19;5046890;28;70570;-40
2023/03/01 12:29:22;;;;;;;;;;;;;;;32.36;60.41;101237.16;5045637;28;66481;-41
2023/03/01 12:32:11;;;;;;;;;;;;;;;32.33;60.15;101232.19;5036771;28;69749;-39
2023/03/01 12:34:43;;;;;;;;;;;;;;;32.31;60.17;101237.00;5045077;28;65954;-40
2023/03/01 12:37:19;;;;;;;;;;;;;;;32.30;59.97;101238.06;5038970;27;70442;-40
2023/03/01 12:39:49;;;;;;;;;;;;;;;32.30;60.31;101248.94;5039895;28;65664;-40
2023/03/01 12:42:31;;;;;;;;;;;;;;;32.29;60.12;101241.84;5041717;28;69556;-40
2023/03/01 12:45:13;;;;;;;;;;;;;;;32.27;59.98;101255.63;5053219;28;65984;-41
2023/03/01 12:47:56;;;;;;;;;;;;;;;32.27;60.09;101260.22;5042917;28;69900;-40
2023/03/01 12:50:34;;;;;;;;;;;;;;;32.21;60.08;101256.50;5047724;27;65990;-40
2023/03/01 12:53:05;;;;;;;;;;;;;;;32.19;59.34;101271.34;5042654;28;70362;-41
2023/03/01 12:55:41;;;;;;;;;;;;;;;32.14;60.24;101271.19;5045203;28;66549;-41
2023/03/01 12:58:27;;;;;;;;;;;;;;;32.11;60.57;101266.19;5056630;27;70323;-38
2023/03/01 13:01:16;;;;;;;;;;;;;;;32.09;60.68;101279.13;5073806;27;66184;-40
2023/03/01 13:04:05;;;;;;;;;;;;;;;32.07;60.70;101278.53;5055431;27;70362;-41
2023/03/01 13:06:41;;;;;;;;;;;;;;;32.08;60.57;101288.34;5045258;28;65685;-39
2023/03/01 13:09:32;;;;;;;;;;;;;;;32.07;59.06;101287.53;5045557;28;69826;-42